ARA127 DNMM-GOBD
Flight info
| Callsign | ARA127 |
|---|---|
| Flight time | N/A |
| Altitude | 36000 |
| Route | POLTO UL433 ACC UB600 AD UR979 ERIDI ERIDI1A |
| Aircraft | B737/M-SDE2E3FGHIRWXY/LB1 |
Departure
| Time | N/A |
|---|---|
| Airport | Murtala Muhammed International Airport (DNMM) |
Arrival
| Time | 2026-05-07 14:38 |
|---|---|
| Airport | Blaise Diagne International Airport (GOBD) |
| Time | Latitude | Longitude | Altitude | Speed | Heading |
|---|---|---|---|---|---|
| 2026-05-07 11:50 | 5.68804 | -0.01152 | 35937 ft | 471 kts | 249° |
| 2026-05-07 11:51 | 5.66489 | -0.07301 | 35943 ft | 471 kts | 249° |
| 2026-05-07 11:51 | 5.64176 | -0.13453 | 35940 ft | 471 kts | 250° |
| 2026-05-07 11:52 | 5.62849 | -0.19812 | 35953 ft | 469 kts | 264° |
| 2026-05-07 11:52 | 5.62287 | -0.26345 | 35941 ft | 470 kts | 265° |
| 2026-05-07 11:53 | 5.61739 | -0.32869 | 35941 ft | 470 kts | 265° |
| 2026-05-07 11:53 | 5.61145 | -0.39400 | 35945 ft | 469 kts | 265° |
| 2026-05-07 11:54 | 5.60529 | -0.45921 | 35945 ft | 469 kts | 265° |
| 2026-05-07 11:54 | 5.59907 | -0.52444 | 35950 ft | 469 kts | 265° |
| 2026-05-07 11:55 | 5.59287 | -0.58965 | 35953 ft | 469 kts | 265° |
| 2026-05-07 11:55 | 5.58667 | -0.65486 | 35959 ft | 469 kts | 265° |
| 2026-05-07 11:56 | 5.58046 | -0.72013 | 35953 ft | 470 kts | 265° |
| 2026-05-07 11:56 | 5.57424 | -0.78543 | 35950 ft | 470 kts | 265° |
| 2026-05-07 11:57 | 5.56801 | -0.85070 | 35952 ft | 469 kts | 265° |
| 2026-05-07 11:57 | 5.56180 | -0.91577 | 35945 ft | 468 kts | 265° |
| 2026-05-07 11:58 | 5.55559 | -0.98077 | 35943 ft | 468 kts | 265° |
| 2026-05-07 11:58 | 5.54942 | -1.04521 | 35950 ft | 467 kts | 265° |
| 2026-05-07 11:59 | 5.54322 | -1.11002 | 35950 ft | 466 kts | 265° |
| 2026-05-07 11:59 | 5.53702 | -1.17473 | 35951 ft | 466 kts | 265° |
| 2026-05-07 12:00 | 5.53095 | -1.23948 | 35951 ft | 466 kts | 265° |
| 2026-05-07 12:00 | 5.52490 | -1.30425 | 35951 ft | 466 kts | 265° |
| 2026-05-07 12:01 | 5.51884 | -1.36900 | 35952 ft | 466 kts | 265° |
| 2026-05-07 12:01 | 5.51275 | -1.43381 | 35952 ft | 467 kts | 265° |
| 2026-05-07 12:02 | 5.50664 | -1.49868 | 35955 ft | 467 kts | 265° |
| 2026-05-07 12:02 | 5.50053 | -1.56358 | 35954 ft | 467 kts | 265° |
| 2026-05-07 12:03 | 5.49441 | -1.62853 | 35955 ft | 468 kts | 265° |
| 2026-05-07 12:03 | 5.48826 | -1.69364 | 35954 ft | 468 kts | 265° |
| 2026-05-07 12:04 | 5.48222 | -1.75873 | 35955 ft | 469 kts | 265° |
| 2026-05-07 12:04 | 5.47632 | -1.82388 | 35956 ft | 469 kts | 265° |
| 2026-05-07 12:05 | 5.47142 | -1.87805 | 35957 ft | 469 kts | 265° |
| 2026-05-07 12:05 | 5.46549 | -1.94323 | 35954 ft | 469 kts | 265° |
| 2026-05-07 12:06 | 5.45954 | -2.00845 | 35959 ft | 469 kts | 265° |
| 2026-05-07 12:06 | 5.45358 | -2.07369 | 35951 ft | 469 kts | 265° |
| 2026-05-07 12:07 | 5.44761 | -2.13894 | 35954 ft | 469 kts | 265° |
| 2026-05-07 12:07 | 5.44164 | -2.20415 | 35951 ft | 469 kts | 265° |
| 2026-05-07 12:08 | 5.43566 | -2.26934 | 35953 ft | 469 kts | 265° |
| 2026-05-07 12:08 | 5.42968 | -2.33451 | 35955 ft | 469 kts | 265° |
| 2026-05-07 12:09 | 5.42369 | -2.39966 | 35950 ft | 469 kts | 265° |
| 2026-05-07 12:09 | 5.41770 | -2.46474 | 35950 ft | 468 kts | 264° |
| 2026-05-07 12:10 | 5.41170 | -2.52979 | 35954 ft | 468 kts | 264° |
| 2026-05-07 12:10 | 5.40571 | -2.59481 | 35952 ft | 468 kts | 264° |
| 2026-05-07 12:11 | 5.39971 | -2.65980 | 35955 ft | 468 kts | 264° |
| 2026-05-07 12:11 | 5.39370 | -2.72481 | 35954 ft | 468 kts | 264° |
| 2026-05-07 12:12 | 5.38770 | -2.78970 | 35955 ft | 468 kts | 264° |
| 2026-05-07 12:12 | 5.38171 | -2.85473 | 35953 ft | 468 kts | 264° |
| 2026-05-07 12:13 | 5.37573 | -2.91974 | 35953 ft | 468 kts | 264° |
| 2026-05-07 12:13 | 5.36973 | -2.98485 | 35951 ft | 469 kts | 264° |
| 2026-05-07 12:14 | 5.36376 | -3.04951 | 35951 ft | 469 kts | 264° |
| 2026-05-07 12:14 | 5.35773 | -3.11465 | 35950 ft | 469 kts | 264° |
| 2026-05-07 12:15 | 5.35170 | -3.17984 | 35947 ft | 469 kts | 264° |
| 2026-05-07 12:15 | 5.34567 | -3.24493 | 35948 ft | 469 kts | 264° |
| 2026-05-07 12:16 | 5.33963 | -3.31000 | 35947 ft | 468 kts | 264° |
| 2026-05-07 12:16 | 5.33360 | -3.37500 | 35946 ft | 468 kts | 264° |
| 2026-05-07 12:17 | 5.32756 | -3.43994 | 35941 ft | 467 kts | 264° |
| 2026-05-07 12:17 | 5.32152 | -3.50483 | 35937 ft | 467 kts | 264° |
| 2026-05-07 12:18 | 5.31547 | -3.56970 | 35939 ft | 467 kts | 264° |
| 2026-05-07 12:18 | 5.30942 | -3.63458 | 35945 ft | 467 kts | 264° |
| 2026-05-07 12:19 | 5.30336 | -3.69950 | 35938 ft | 467 kts | 264° |
| 2026-05-07 12:19 | 5.29733 | -3.76398 | 35938 ft | 468 kts | 264° |
| 2026-05-07 12:20 | 5.29125 | -3.82892 | 35941 ft | 468 kts | 263° |
| 2026-05-07 12:20 | 5.28824 | -3.89415 | 35927 ft | 470 kts | 277° |
| 2026-05-07 12:20 | 5.29567 | -3.92606 | 35949 ft | 471 kts | 289° |
| 2026-05-07 12:21 | 5.30961 | -3.95576 | 35936 ft | 472 kts | 303° |
| 2026-05-07 12:21 | 5.34823 | -4.00900 | 35941 ft | 473 kts | 307° |
| 2026-05-07 12:22 | 5.38795 | -4.06170 | 35930 ft | 474 kts | 307° |
| 2026-05-07 12:22 | 5.42739 | -4.11492 | 35924 ft | 476 kts | 306° |
| 2026-05-07 12:23 | 5.46656 | -4.16851 | 35920 ft | 476 kts | 306° |
| 2026-05-07 12:23 | 5.50563 | -4.22219 | 35923 ft | 476 kts | 306° |
| 2026-05-07 12:24 | 5.54470 | -4.27587 | 35921 ft | 476 kts | 306° |
| 2026-05-07 12:24 | 5.58380 | -4.32957 | 35921 ft | 476 kts | 306° |
| 2026-05-07 12:25 | 5.62285 | -4.38320 | 35918 ft | 476 kts | 306° |
| 2026-05-07 12:25 | 5.66186 | -4.43678 | 35920 ft | 475 kts | 306° |
| 2026-05-07 12:26 | 5.70080 | -4.49029 | 35921 ft | 474 kts | 306° |
| 2026-05-07 12:26 | 5.73968 | -4.54372 | 35923 ft | 474 kts | 306° |
| 2026-05-07 12:27 | 5.77852 | -4.59712 | 35920 ft | 473 kts | 306° |
| 2026-05-07 12:27 | 5.81733 | -4.65050 | 35921 ft | 473 kts | 306° |
| 2026-05-07 12:28 | 5.85615 | -4.70389 | 35924 ft | 473 kts | 306° |
| 2026-05-07 12:28 | 5.89463 | -4.75683 | 35926 ft | 473 kts | 306° |
| 2026-05-07 12:29 | 5.93343 | -4.81023 | 35924 ft | 473 kts | 306° |
| 2026-05-07 12:29 | 5.97218 | -4.86358 | 35925 ft | 473 kts | 306° |
| 2026-05-07 12:30 | 6.01098 | -4.91701 | 35922 ft | 473 kts | 306° |
| 2026-05-07 12:30 | 6.04975 | -4.97042 | 35925 ft | 473 kts | 306° |
| 2026-05-07 12:31 | 6.08852 | -5.02384 | 35926 ft | 473 kts | 306° |
| 2026-05-07 12:31 | 6.12729 | -5.07729 | 35927 ft | 474 kts | 306° |
| 2026-05-07 12:32 | 6.16610 | -5.13079 | 35927 ft | 474 kts | 306° |
| 2026-05-07 12:32 | 6.20484 | -5.18432 | 35923 ft | 474 kts | 306° |
| 2026-05-07 12:33 | 6.26297 | -5.26471 | 35930 ft | 474 kts | 306° |
| 2026-05-07 12:33 | 6.30170 | -5.31829 | 35928 ft | 473 kts | 306° |
| 2026-05-07 12:34 | 6.34041 | -5.37185 | 35931 ft | 473 kts | 306° |
| 2026-05-07 12:34 | 6.37907 | -5.42536 | 35933 ft | 473 kts | 306° |
| 2026-05-07 12:35 | 6.41776 | -5.47893 | 35931 ft | 473 kts | 306° |
| 2026-05-07 12:35 | 6.45637 | -5.53241 | 35929 ft | 473 kts | 306° |
| 2026-05-07 12:36 | 6.49495 | -5.58586 | 35930 ft | 472 kts | 306° |
| 2026-05-07 12:36 | 6.53351 | -5.63929 | 35931 ft | 472 kts | 306° |
| 2026-05-07 12:37 | 6.57204 | -5.69271 | 35928 ft | 471 kts | 306° |
| 2026-05-07 12:37 | 6.61050 | -5.74604 | 35930 ft | 471 kts | 306° |
| 2026-05-07 12:38 | 6.64863 | -5.79893 | 35929 ft | 470 kts | 306° |
| 2026-05-07 12:38 | 6.68700 | -5.85218 | 35931 ft | 470 kts | 306° |
| 2026-05-07 12:39 | 6.72533 | -5.90540 | 35929 ft | 470 kts | 306° |
| 2026-05-07 12:39 | 6.76360 | -5.95860 | 35931 ft | 469 kts | 305° |
| 2026-05-07 12:40 | 6.80114 | -6.01230 | 35940 ft | 469 kts | 304° |
| 2026-05-07 12:40 | 6.83841 | -6.06628 | 35931 ft | 469 kts | 304° |
| 2026-05-07 12:41 | 6.87566 | -6.12013 | 35934 ft | 469 kts | 304° |
| 2026-05-07 12:41 | 6.91299 | -6.17396 | 35934 ft | 468 kts | 304° |
| 2026-05-07 12:42 | 6.95027 | -6.22768 | 35936 ft | 468 kts | 304° |
| 2026-05-07 12:42 | 6.98750 | -6.28134 | 35931 ft | 467 kts | 304° |
| 2026-05-07 12:43 | 7.02465 | -6.33489 | 35932 ft | 466 kts | 304° |
| 2026-05-07 12:43 | 7.06178 | -6.38844 | 35935 ft | 466 kts | 304° |
| 2026-05-07 12:44 | 7.09878 | -6.44184 | 35932 ft | 465 kts | 304° |
| 2026-05-07 12:44 | 7.13554 | -6.49490 | 35933 ft | 464 kts | 304° |
| 2026-05-07 12:45 | 7.17241 | -6.54813 | 35929 ft | 463 kts | 304° |
| 2026-05-07 12:45 | 7.20921 | -6.60127 | 35935 ft | 462 kts | 304° |
| 2026-05-07 12:46 | 7.24596 | -6.65437 | 35934 ft | 461 kts | 304° |
| 2026-05-07 12:46 | 7.28263 | -6.70736 | 35933 ft | 461 kts | 304° |
| 2026-05-07 12:47 | 7.31925 | -6.76031 | 35931 ft | 461 kts | 304° |
| 2026-05-07 12:47 | 7.35590 | -6.81331 | 35930 ft | 460 kts | 304° |
| 2026-05-07 12:48 | 7.39248 | -6.86624 | 35931 ft | 460 kts | 304° |
| 2026-05-07 12:48 | 7.42905 | -6.91915 | 35929 ft | 460 kts | 304° |
| 2026-05-07 12:49 | 7.46559 | -6.97206 | 35931 ft | 460 kts | 304° |
| 2026-05-07 12:49 | 7.50214 | -7.02498 | 35929 ft | 460 kts | 304° |
| 2026-05-07 12:50 | 7.53841 | -7.07753 | 35927 ft | 460 kts | 304° |
| 2026-05-07 12:50 | 7.57512 | -7.13073 | 35931 ft | 459 kts | 304° |
| 2026-05-07 12:51 | 7.61161 | -7.18362 | 35933 ft | 459 kts | 304° |
| 2026-05-07 12:51 | 7.64779 | -7.23610 | 35931 ft | 459 kts | 304° |
| 2026-05-07 12:52 | 7.68419 | -7.28888 | 35931 ft | 459 kts | 304° |
| 2026-05-07 12:52 | 7.72056 | -7.34167 | 35935 ft | 458 kts | 304° |
| 2026-05-07 12:53 | 7.75694 | -7.39448 | 35938 ft | 458 kts | 304° |
| 2026-05-07 12:53 | 7.79324 | -7.44720 | 35938 ft | 458 kts | 304° |
| 2026-05-07 12:54 | 7.82957 | -7.49997 | 35941 ft | 457 kts | 304° |
| 2026-05-07 12:54 | 7.85971 | -7.54377 | 35941 ft | 457 kts | 304° |
| 2026-05-07 12:55 | 7.89592 | -7.59640 | 35943 ft | 457 kts | 304° |
| 2026-05-07 12:55 | 7.93213 | -7.64905 | 35944 ft | 456 kts | 305° |
| 2026-05-07 12:56 | 7.96825 | -7.70159 | 35944 ft | 456 kts | 305° |
| 2026-05-07 12:56 | 8.01020 | -7.76265 | 35944 ft | 455 kts | 305° |
| 2026-05-07 12:57 | 8.04040 | -7.80661 | 35943 ft | 455 kts | 305° |
| 2026-05-07 12:57 | 8.07639 | -7.85903 | 35948 ft | 454 kts | 305° |
| 2026-05-07 12:58 | 8.11231 | -7.91135 | 35945 ft | 454 kts | 305° |
| 2026-05-07 12:58 | 8.14823 | -7.96369 | 35945 ft | 453 kts | 305° |
| 2026-05-07 12:59 | 8.18412 | -8.01603 | 35947 ft | 453 kts | 305° |
| 2026-05-07 12:59 | 8.21969 | -8.06790 | 35942 ft | 452 kts | 305° |
| 2026-05-07 13:00 | 8.25547 | -8.12010 | 35945 ft | 452 kts | 305° |
| 2026-05-07 13:00 | 8.29118 | -8.17224 | 35946 ft | 451 kts | 305° |
| 2026-05-07 13:01 | 8.32684 | -8.22432 | 35946 ft | 450 kts | 305° |
| 2026-05-07 13:01 | 8.36243 | -8.27629 | 35943 ft | 450 kts | 305° |
| 2026-05-07 13:02 | 8.39800 | -8.32819 | 35938 ft | 449 kts | 305° |
| 2026-05-07 13:02 | 8.43349 | -8.37996 | 35943 ft | 448 kts | 305° |
| 2026-05-07 13:03 | 8.46891 | -8.43166 | 35944 ft | 447 kts | 305° |
| 2026-05-07 13:03 | 8.50431 | -8.48337 | 35937 ft | 447 kts | 305° |
| 2026-05-07 13:04 | 8.53961 | -8.53494 | 35938 ft | 446 kts | 305° |
| 2026-05-07 13:04 | 8.57488 | -8.58649 | 35936 ft | 445 kts | 305° |
| 2026-05-07 13:05 | 8.61006 | -8.63793 | 35940 ft | 445 kts | 305° |
| 2026-05-07 13:05 | 8.64521 | -8.68936 | 35948 ft | 445 kts | 305° |
| 2026-05-07 13:06 | 8.68013 | -8.74045 | 35940 ft | 445 kts | 304° |
| 2026-05-07 13:06 | 8.71524 | -8.79186 | 35943 ft | 445 kts | 304° |
| 2026-05-07 13:07 | 8.75038 | -8.84332 | 35937 ft | 444 kts | 304° |
| 2026-05-07 13:07 | 8.78547 | -8.89473 | 35936 ft | 444 kts | 304° |
| 2026-05-07 13:08 | 8.82057 | -8.94618 | 35936 ft | 445 kts | 304° |
| 2026-05-07 13:08 | 8.85569 | -8.99767 | 35939 ft | 445 kts | 304° |
| 2026-05-07 13:09 | 8.89082 | -9.04920 | 35938 ft | 445 kts | 304° |
| 2026-05-07 13:09 | 8.92599 | -9.10081 | 35940 ft | 446 kts | 304° |
| 2026-05-07 13:10 | 8.96118 | -9.15248 | 35931 ft | 446 kts | 304° |
| 2026-05-07 13:10 | 8.99639 | -9.20419 | 35937 ft | 447 kts | 304° |
| 2026-05-07 13:11 | 9.03165 | -9.25600 | 35935 ft | 447 kts | 304° |
| 2026-05-07 13:11 | 9.06720 | -9.30762 | 35926 ft | 447 kts | 305° |
| 2026-05-07 13:12 | 9.10389 | -9.35846 | 35929 ft | 447 kts | 306° |
| 2026-05-07 13:12 | 9.14071 | -9.40913 | 35928 ft | 447 kts | 306° |
| 2026-05-07 13:13 | 9.17737 | -9.45990 | 35926 ft | 446 kts | 305° |
| 2026-05-07 13:13 | 9.21387 | -9.51064 | 35922 ft | 446 kts | 305° |
| 2026-05-07 13:14 | 9.25037 | -9.56144 | 35922 ft | 446 kts | 305° |
| 2026-05-07 13:14 | 9.28682 | -9.61218 | 35918 ft | 445 kts | 305° |
| 2026-05-07 13:15 | 9.32324 | -9.66290 | 35911 ft | 445 kts | 305° |
| 2026-05-07 13:15 | 9.35965 | -9.71361 | 35908 ft | 445 kts | 305° |
| 2026-05-07 13:16 | 9.39601 | -9.76429 | 35911 ft | 445 kts | 305° |
| 2026-05-07 13:16 | 9.43233 | -9.81492 | 35907 ft | 444 kts | 305° |
| 2026-05-07 13:17 | 9.46839 | -9.86523 | 35906 ft | 444 kts | 305° |
| 2026-05-07 13:17 | 9.50465 | -9.91583 | 35905 ft | 444 kts | 304° |
| 2026-05-07 13:18 | 9.54093 | -9.96647 | 35901 ft | 444 kts | 304° |
| 2026-05-07 13:18 | 9.57713 | -10.01704 | 35902 ft | 444 kts | 304° |
| 2026-05-07 13:19 | 9.61338 | -10.06769 | 35902 ft | 443 kts | 304° |
| 2026-05-07 13:19 | 9.64953 | -10.11825 | 35899 ft | 443 kts | 304° |
| 2026-05-07 13:20 | 9.68568 | -10.16887 | 35896 ft | 443 kts | 304° |
| 2026-05-07 13:20 | 9.72181 | -10.21948 | 35903 ft | 443 kts | 304° |
| 2026-05-07 13:21 | 9.75791 | -10.27007 | 35900 ft | 443 kts | 304° |
| 2026-05-07 13:21 | 9.79399 | -10.32067 | 35896 ft | 443 kts | 304° |
| 2026-05-07 13:22 | 9.83008 | -10.37129 | 35898 ft | 442 kts | 304° |
| 2026-05-07 13:22 | 9.86611 | -10.42185 | 35895 ft | 442 kts | 304° |
| 2026-05-07 13:23 | 9.90213 | -10.47243 | 35891 ft | 442 kts | 304° |
| 2026-05-07 13:23 | 9.93813 | -10.52299 | 35893 ft | 442 kts | 304° |
| 2026-05-07 13:24 | 9.97408 | -10.57351 | 35887 ft | 441 kts | 304° |
| 2026-05-07 13:24 | 10.00998 | -10.62397 | 35891 ft | 441 kts | 304° |
| 2026-05-07 13:25 | 10.04588 | -10.67449 | 35892 ft | 441 kts | 304° |
| 2026-05-07 13:25 | 10.08157 | -10.72470 | 35888 ft | 441 kts | 304° |
| 2026-05-07 13:26 | 10.11537 | -10.77655 | 35891 ft | 440 kts | 300° |
| 2026-05-07 13:26 | 10.14708 | -10.82967 | 35886 ft | 440 kts | 299° |
| 2026-05-07 13:27 | 10.17895 | -10.88278 | 35886 ft | 440 kts | 300° |
| 2026-05-07 13:27 | 10.21102 | -10.93570 | 35892 ft | 440 kts | 300° |
| 2026-05-07 13:28 | 10.24314 | -10.98865 | 35892 ft | 440 kts | 300° |
| 2026-05-07 13:28 | 10.27853 | -11.03944 | 35903 ft | 442 kts | 305° |
| 2026-05-07 13:29 | 10.31656 | -11.08859 | 35895 ft | 442 kts | 306° |
| 2026-05-07 13:29 | 10.35452 | -11.13774 | 35891 ft | 442 kts | 305° |
| 2026-05-07 13:30 | 10.39220 | -11.18713 | 35897 ft | 442 kts | 305° |
| 2026-05-07 13:30 | 10.42973 | -11.23660 | 35899 ft | 442 kts | 305° |
| 2026-05-07 13:31 | 10.46728 | -11.28617 | 35899 ft | 443 kts | 305° |
| 2026-05-07 13:31 | 10.50486 | -11.33576 | 35899 ft | 443 kts | 305° |
| 2026-05-07 13:32 | 10.54242 | -11.38535 | 35902 ft | 443 kts | 305° |
| 2026-05-07 13:32 | 10.57997 | -11.43494 | 35905 ft | 443 kts | 305° |
| 2026-05-07 13:33 | 10.61752 | -11.48457 | 35898 ft | 443 kts | 304° |
| 2026-05-07 13:33 | 10.65508 | -11.53421 | 35901 ft | 443 kts | 305° |
| 2026-05-07 13:34 | 10.71028 | -11.60960 | 35903 ft | 443 kts | 303° |
| 2026-05-07 13:35 | 10.74627 | -11.66034 | 35896 ft | 443 kts | 303° |
| 2026-05-07 13:35 | 10.78242 | -11.71113 | 35897 ft | 443 kts | 303° |
| 2026-05-07 13:36 | 10.81839 | -11.76149 | 35893 ft | 443 kts | 303° |
| 2026-05-07 13:36 | 10.85465 | -11.81222 | 35897 ft | 443 kts | 303° |
| 2026-05-07 13:37 | 10.89090 | -11.86296 | 35897 ft | 443 kts | 303° |
| 2026-05-07 13:37 | 10.92716 | -11.91374 | 35893 ft | 444 kts | 303° |
| 2026-05-07 13:38 | 10.96342 | -11.96454 | 35894 ft | 443 kts | 303° |
| 2026-05-07 13:38 | 10.99967 | -12.01536 | 35891 ft | 444 kts | 303° |
| 2026-05-07 13:39 | 11.03592 | -12.06620 | 35897 ft | 444 kts | 303° |
| 2026-05-07 13:39 | 11.07216 | -12.11705 | 35896 ft | 444 kts | 303° |
| 2026-05-07 13:40 | 11.10838 | -12.16790 | 35894 ft | 444 kts | 303° |
| 2026-05-07 13:40 | 11.14462 | -12.21880 | 35902 ft | 444 kts | 303° |
| 2026-05-07 13:41 | 11.18082 | -12.26968 | 35903 ft | 444 kts | 303° |
| 2026-05-07 13:41 | 11.21702 | -12.32058 | 35904 ft | 444 kts | 303° |
| 2026-05-07 13:42 | 11.25320 | -12.37150 | 35906 ft | 443 kts | 302° |
| 2026-05-07 13:42 | 11.28834 | -12.42247 | 35905 ft | 442 kts | 301° |
| 2026-05-07 13:43 | 11.32332 | -12.47401 | 35903 ft | 442 kts | 301° |
| 2026-05-07 13:43 | 11.35830 | -12.52549 | 35902 ft | 442 kts | 301° |
| 2026-05-07 13:44 | 11.39339 | -12.57698 | 35903 ft | 442 kts | 301° |
| 2026-05-07 13:44 | 11.42849 | -12.62848 | 35899 ft | 442 kts | 301° |
| 2026-05-07 13:45 | 11.45769 | -12.67132 | 35904 ft | 443 kts | 301° |
| 2026-05-07 13:45 | 11.49282 | -12.72288 | 35895 ft | 443 kts | 301° |
| 2026-05-07 13:46 | 11.52798 | -12.77454 | 35889 ft | 443 kts | 301° |
| 2026-05-07 13:46 | 11.56309 | -12.82614 | 35888 ft | 443 kts | 301° |
| 2026-05-07 13:47 | 11.59819 | -12.87775 | 35878 ft | 443 kts | 301° |
| 2026-05-07 13:47 | 11.63330 | -12.92940 | 35873 ft | 443 kts | 301° |
| 2026-05-07 13:48 | 11.66836 | -12.98101 | 35875 ft | 443 kts | 301° |
| 2026-05-07 13:48 | 11.70343 | -13.03267 | 35865 ft | 443 kts | 301° |
| 2026-05-07 13:49 | 11.73849 | -13.08434 | 35865 ft | 443 kts | 301° |
| 2026-05-07 13:49 | 11.77358 | -13.13607 | 35860 ft | 443 kts | 301° |
| 2026-05-07 13:50 | 11.81074 | -13.18642 | 35856 ft | 445 kts | 305° |
| 2026-05-07 13:50 | 11.85013 | -13.23526 | 35857 ft | 446 kts | 306° |
| 2026-05-07 13:51 | 11.88957 | -13.28412 | 35858 ft | 446 kts | 305° |
| 2026-05-07 13:51 | 11.92877 | -13.33321 | 35858 ft | 446 kts | 305° |
| 2026-05-07 13:52 | 11.96757 | -13.38206 | 35862 ft | 446 kts | 305° |
| 2026-05-07 13:52 | 12.00662 | -13.43128 | 35859 ft | 446 kts | 305° |
| 2026-05-07 13:53 | 12.04589 | -13.48079 | 35859 ft | 446 kts | 305° |
| 2026-05-07 13:53 | 12.08468 | -13.52970 | 35862 ft | 446 kts | 305° |
| 2026-05-07 13:54 | 12.12368 | -13.57891 | 35860 ft | 446 kts | 305° |
| 2026-05-07 13:54 | 12.16270 | -13.62817 | 35861 ft | 446 kts | 305° |
| 2026-05-07 13:55 | 12.20172 | -13.67746 | 35857 ft | 446 kts | 305° |
| 2026-05-07 13:55 | 12.24071 | -13.72674 | 35856 ft | 446 kts | 304° |
| 2026-05-07 13:56 | 12.27912 | -13.77641 | 35854 ft | 444 kts | 302° |
| 2026-05-07 13:56 | 12.31451 | -13.82805 | 35859 ft | 443 kts | 300° |
| 2026-05-07 13:57 | 12.34926 | -13.88015 | 35856 ft | 443 kts | 300° |
| 2026-05-07 13:57 | 12.38426 | -13.93210 | 35859 ft | 444 kts | 300° |
| 2026-05-07 13:58 | 12.41948 | -13.98399 | 35855 ft | 444 kts | 300° |
| 2026-05-07 13:58 | 12.45475 | -14.03586 | 35854 ft | 444 kts | 300° |
| 2026-05-07 13:59 | 12.48981 | -14.08746 | 35856 ft | 445 kts | 300° |
| 2026-05-07 13:59 | 12.52511 | -14.13943 | 35857 ft | 445 kts | 300° |
| 2026-05-07 14:00 | 12.56040 | -14.19145 | 35856 ft | 445 kts | 300° |
| 2026-05-07 14:00 | 12.59570 | -14.24351 | 35858 ft | 445 kts | 300° |
| 2026-05-07 14:01 | 12.63101 | -14.29560 | 35858 ft | 445 kts | 300° |
| 2026-05-07 14:01 | 12.66629 | -14.34770 | 35858 ft | 445 kts | 300° |
| 2026-05-07 14:02 | 12.70158 | -14.39984 | 35861 ft | 445 kts | 300° |
| 2026-05-07 14:02 | 12.73687 | -14.45200 | 35856 ft | 445 kts | 300° |
| 2026-05-07 14:03 | 12.77211 | -14.50412 | 35857 ft | 445 kts | 300° |
| 2026-05-07 14:03 | 12.80731 | -14.55628 | 35858 ft | 445 kts | 300° |
| 2026-05-07 14:04 | 12.84249 | -14.60847 | 35860 ft | 445 kts | 300° |
| 2026-05-07 14:04 | 12.87766 | -14.66065 | 35859 ft | 445 kts | 300° |
| 2026-05-07 14:05 | 12.91284 | -14.71288 | 35855 ft | 445 kts | 300° |
| 2026-05-07 14:05 | 12.94773 | -14.76471 | 35860 ft | 444 kts | 300° |
| 2026-05-07 14:06 | 12.98283 | -14.81689 | 35865 ft | 444 kts | 300° |
| 2026-05-07 14:06 | 13.01791 | -14.86907 | 35854 ft | 444 kts | 300° |
| 2026-05-07 14:07 | 13.05299 | -14.92127 | 35850 ft | 444 kts | 300° |
| 2026-05-07 14:07 | 13.08800 | -14.97340 | 35853 ft | 444 kts | 300° |
| 2026-05-07 14:08 | 13.12295 | -15.02550 | 35859 ft | 443 kts | 300° |
| 2026-05-07 14:08 | 13.15783 | -15.07750 | 35853 ft | 442 kts | 300° |
| 2026-05-07 14:09 | 13.19266 | -15.12945 | 35854 ft | 441 kts | 300° |
| 2026-05-07 14:09 | 13.22608 | -15.18209 | 35852 ft | 439 kts | 297° |
| 2026-05-07 14:10 | 13.25837 | -15.23517 | 35863 ft | 438 kts | 297° |
| 2026-05-07 14:10 | 13.29062 | -15.28807 | 35859 ft | 437 kts | 297° |
| 2026-05-07 14:11 | 13.32297 | -15.34081 | 35863 ft | 436 kts | 297° |
| 2026-05-07 14:11 | 13.35530 | -15.39337 | 35857 ft | 435 kts | 297° |
| 2026-05-07 14:12 | 13.38754 | -15.44579 | 35862 ft | 434 kts | 297° |
| 2026-05-07 14:12 | 13.41973 | -15.49814 | 35864 ft | 433 kts | 297° |
| 2026-05-07 14:13 | 13.45180 | -15.55037 | 35872 ft | 432 kts | 297° |
| 2026-05-07 14:13 | 13.48386 | -15.60259 | 35863 ft | 432 kts | 297° |
| 2026-05-07 14:14 | 13.51587 | -15.65478 | 35866 ft | 431 kts | 297° |
| 2026-05-07 14:14 | 13.54780 | -15.70686 | 35876 ft | 431 kts | 297° |
| 2026-05-07 14:15 | 13.57975 | -15.75900 | 35868 ft | 431 kts | 297° |
| 2026-05-07 14:15 | 13.61150 | -15.81085 | 35871 ft | 431 kts | 297° |
| 2026-05-07 14:16 | 13.64342 | -15.86302 | 35643 ft | 434 kts | 297° |
| 2026-05-07 14:16 | 13.66340 | -15.89573 | 34755 ft | 439 kts | 297° |
| 2026-05-07 14:16 | 13.67968 | -15.92236 | 33967 ft | 441 kts | 297° |
| 2026-05-07 14:16 | 13.69605 | -15.94916 | 33003 ft | 445 kts | 297° |
| 2026-05-07 14:17 | 13.71256 | -15.97617 | 32077 ft | 447 kts | 297° |
| 2026-05-07 14:17 | 13.72916 | -16.00335 | 31197 ft | 449 kts | 297° |
| 2026-05-07 14:17 | 13.74569 | -16.03037 | 30506 ft | 445 kts | 297° |
| 2026-05-07 14:17 | 13.79098 | -16.10444 | 28542 ft | 433 kts | 297° |
| 2026-05-07 14:18 | 13.85361 | -16.20715 | 25849 ft | 414 kts | 298° |
| 2026-05-07 14:18 | 13.89527 | -16.27559 | 24011 ft | 405 kts | 299° |
| 2026-05-07 14:18 | 13.91024 | -16.30021 | 23253 ft | 405 kts | 300° |
| 2026-05-07 14:18 | 13.92493 | -16.32439 | 22488 ft | 402 kts | 300° |
| 2026-05-07 14:19 | 13.93972 | -16.34869 | 21809 ft | 398 kts | 300° |
| 2026-05-07 14:19 | 13.95431 | -16.37269 | 21147 ft | 394 kts | 300° |
| 2026-05-07 14:19 | 13.96882 | -16.39655 | 20484 ft | 391 kts | 300° |
| 2026-05-07 14:19 | 13.98317 | -16.42017 | 19832 ft | 388 kts | 301° |
| 2026-05-07 14:20 | 14.00947 | -16.46352 | 18656 ft | 384 kts | 301° |
| 2026-05-07 14:20 | 14.06577 | -16.55605 | 15970 ft | 377 kts | 301° |
| 2026-05-07 14:20 | 14.12069 | -16.64679 | 13454 ft | 371 kts | 301° |
| 2026-05-07 14:20 | 14.16191 | -16.71512 | 11353 ft | 367 kts | 301° |
| 2026-05-07 14:21 | 14.17554 | -16.73754 | 10564 ft | 370 kts | 301° |
| 2026-05-07 14:21 | 14.18889 | -16.75951 | 10319 ft | 354 kts | 301° |
| 2026-05-07 14:21 | 14.20165 | -16.78052 | 10135 ft | 338 kts | 301° |
| 2026-05-07 14:21 | 14.21380 | -16.80056 | 10021 ft | 321 kts | 301° |
| 2026-05-07 14:22 | 14.22522 | -16.81942 | 9909 ft | 299 kts | 301° |
| 2026-05-07 14:22 | 14.23606 | -16.83733 | 9350 ft | 295 kts | 301° |
| 2026-05-07 14:22 | 14.24678 | -16.85507 | 8888 ft | 289 kts | 301° |
| 2026-05-07 14:22 | 14.27574 | -16.90305 | 7759 ft | 273 kts | 302° |
| 2026-05-07 14:23 | 14.31530 | -16.96850 | 6329 ft | 268 kts | 302° |
| 2026-05-07 14:23 | 14.32299 | -16.98126 | 5970 ft | 270 kts | 302° |
| 2026-05-07 14:23 | 14.32787 | -16.98935 | 5801 ft | 269 kts | 302° |
| 2026-05-07 14:23 | 14.33284 | -16.99758 | 5601 ft | 270 kts | 302° |
| 2026-05-07 14:24 | 14.33779 | -17.00578 | 5424 ft | 269 kts | 302° |
| 2026-05-07 14:24 | 14.34274 | -17.01398 | 5265 ft | 268 kts | 302° |
| 2026-05-07 14:24 | 14.34760 | -17.02204 | 5196 ft | 263 kts | 302° |
| 2026-05-07 14:24 | 14.35239 | -17.02998 | 5145 ft | 257 kts | 302° |
| 2026-05-07 14:25 | 14.35708 | -17.03774 | 5057 ft | 254 kts | 302° |
| 2026-05-07 14:25 | 14.36169 | -17.04539 | 5015 ft | 248 kts | 302° |
| 2026-05-07 14:25 | 14.36620 | -17.05285 | 4957 ft | 242 kts | 304° |
| 2026-05-07 14:25 | 14.37135 | -17.05952 | 4894 ft | 234 kts | 319° |
| 2026-05-07 14:26 | 14.37798 | -17.06399 | 4842 ft | 224 kts | 340° |
| 2026-05-07 14:26 | 14.38529 | -17.06588 | 4862 ft | 210 kts | 353° |
| 2026-05-07 14:26 | 14.39241 | -17.06687 | 4826 ft | 202 kts | 352° |
| 2026-05-07 14:26 | 14.39923 | -17.06792 | 4759 ft | 196 kts | 353° |
| 2026-05-07 14:27 | 14.40572 | -17.06879 | 4800 ft | 183 kts | 354° |
| 2026-05-07 14:27 | 14.41204 | -17.06942 | 4701 ft | 179 kts | 356° |
| 2026-05-07 14:27 | 14.41818 | -17.06984 | 4614 ft | 178 kts | 358° |
| 2026-05-07 14:27 | 14.42427 | -17.07012 | 4571 ft | 173 kts | 359° |
| 2026-05-07 14:28 | 14.43046 | -17.07033 | 4417 ft | 179 kts | 359° |
| 2026-05-07 14:28 | 14.43662 | -17.07048 | 4301 ft | 178 kts | 359° |
| 2026-05-07 14:28 | 14.44268 | -17.07059 | 4243 ft | 170 kts | 360° |
| 2026-05-07 14:28 | 14.44873 | -17.07068 | 4084 ft | 174 kts | 0° |
| 2026-05-07 14:29 | 14.45465 | -17.07076 | 3999 ft | 170 kts | 0° |
| 2026-05-07 14:29 | 14.46044 | -17.07082 | 3921 ft | 163 kts | 360° |
| 2026-05-07 14:29 | 14.46611 | -17.07088 | 3804 ft | 159 kts | 0° |
| 2026-05-07 14:29 | 14.47159 | -17.07094 | 3669 ft | 157 kts | 0° |
| 2026-05-07 14:30 | 14.47689 | -17.07099 | 3602 ft | 153 kts | 0° |
| 2026-05-07 14:30 | 14.48225 | -17.07105 | 3528 ft | 151 kts | 0° |
| 2026-05-07 14:30 | 14.48754 | -17.07110 | 3369 ft | 153 kts | 360° |
| 2026-05-07 14:30 | 14.49271 | -17.07114 | 3300 ft | 149 kts | 0° |
| 2026-05-07 14:31 | 14.49786 | -17.07119 | 3238 ft | 144 kts | 360° |
| 2026-05-07 14:31 | 14.50294 | -17.07124 | 3024 ft | 151 kts | 360° |
| 2026-05-07 14:31 | 14.50795 | -17.07138 | 3052 ft | 141 kts | 359° |
| 2026-05-07 14:31 | 14.51291 | -17.07150 | 3013 ft | 145 kts | 359° |
| 2026-05-07 14:32 | 14.51800 | -17.07164 | 2913 ft | 148 kts | 0° |
| 2026-05-07 14:32 | 14.52311 | -17.07174 | 2812 ft | 145 kts | 2° |
| 2026-05-07 14:32 | 14.52811 | -17.07160 | 2679 ft | 142 kts | 3° |
| 2026-05-07 14:32 | 14.53296 | -17.07150 | 2558 ft | 137 kts | 0° |
| 2026-05-07 14:33 | 14.53773 | -17.07144 | 2495 ft | 137 kts | 1° |
| 2026-05-07 14:33 | 14.54252 | -17.07155 | 2471 ft | 139 kts | 359° |
| 2026-05-07 14:33 | 14.54734 | -17.07162 | 2390 ft | 140 kts | 1° |
| 2026-05-07 14:33 | 14.55225 | -17.07170 | 2269 ft | 143 kts | 0° |
| 2026-05-07 14:34 | 14.55717 | -17.07173 | 2186 ft | 138 kts | 360° |
| 2026-05-07 14:34 | 14.56191 | -17.07174 | 2156 ft | 134 kts | 360° |
| 2026-05-07 14:34 | 14.56655 | -17.07173 | 2080 ft | 133 kts | 358° |
| 2026-05-07 14:34 | 14.57120 | -17.07181 | 1961 ft | 134 kts | 0° |
| 2026-05-07 14:35 | 14.57588 | -17.07192 | 1847 ft | 134 kts | 1° |
| 2026-05-07 14:35 | 14.58056 | -17.07198 | 1740 ft | 135 kts | 1° |
| 2026-05-07 14:35 | 14.58524 | -17.07201 | 1620 ft | 134 kts | 2° |
| 2026-05-07 14:35 | 14.58993 | -17.07206 | 1532 ft | 134 kts | 1° |
| 2026-05-07 14:36 | 14.59672 | -17.07215 | 1487 ft | 130 kts | 1° |
| 2026-05-07 14:36 | 14.60634 | -17.07220 | 1227 ft | 137 kts | 359° |
| 2026-05-07 14:36 | 14.61253 | -17.07225 | 1061 ft | 131 kts | 358° |
| 2026-05-07 14:36 | 14.62144 | -17.07234 | 898 ft | 126 kts | 358° |
| 2026-05-07 14:37 | 14.62993 | -17.07246 | 810 ft | 121 kts | 1° |
| 2026-05-07 14:37 | 14.64699 | -17.07257 | 455 ft | 124 kts | 360° |
| 2026-05-07 14:37 | 14.65538 | -17.07269 | 325 ft | 117 kts | 359° |
| 2026-05-07 14:38 | 14.66286 | -17.07275 | 275 ft | 90 kts | 359° |
| 2026-05-07 14:38 | 14.66763 | -17.07285 | 274 ft | 47 kts | 0° |
| 2026-05-07 14:38 | 14.66986 | -17.07285 | 273 ft | 27 kts | 359° |
| 2026-05-07 14:38 | 14.67079 | -17.07164 | 271 ft | 24 kts | 94° |
| 2026-05-07 14:39 | 14.67082 | -17.06995 | 270 ft | 23 kts | 88° |
| 2026-05-07 14:39 | 14.67092 | -17.06878 | 270 ft | 10 kts | 80° |
| 2026-05-07 14:39 | 14.67097 | -17.06842 | 274 ft | 2 kts | 82° |
| 2026-05-07 14:39 | 14.67097 | -17.06839 | 273 ft | 0 kts | 82° |
| 2026-05-07 14:56 | 14.67023 | -17.06846 | 275 ft | 0 kts | 82° |